Time;durP1;ratioP1;P1;durP2;ratioP2;P2;SDS_P1;SDS_P2;PMS_P1;PMS_P2;Temp;Humidity;BMP_temperature;BMP_pressure;BME280_temperature;BME280_humidity;BME280_pressure;Samples;Min_cycle;Max_cycle;Signal;HPM_P1;HPM_P2
2020/12/11 00:02:45;;;;;;;50.92;38.45;;;;;;;-2.62;77.71;100983.17;1764575;81;21805;-78
2020/12/11 00:05:51;;;;;;;57.78;42.50;;;;;;;-2.64;77.75;100986.38;1797613;80;21290;-79
2020/12/11 00:08:56;;;;;;;34.98;27.27;;;;;;;-2.67;77.76;100975.84;1764629;81;21305;-79
2020/12/11 00:12:02;;;;;;;54.53;41.83;;;;;;;-2.69;77.84;100976.37;1797603;80;21231;-79
2020/12/11 00:15:08;;;;;;;78.97;58.78;;;;;;;-2.76;77.97;100969.60;1764600;81;21325;-79
2020/12/11 00:18:14;;;;;;;46.37;34.23;;;;;;;-2.83;78.12;100975.70;1796387;80;21168;-79
2020/12/11 00:21:18;;;;;;;38.78;27.65;;;;;;;-2.87;78.11;100966.13;1764558;81;21186;-79
2020/12/11 00:24:24;;;;;;;35.52;22.85;;;;;;;-2.96;78.06;100954.52;1797559;80;21270;-79
2020/12/11 00:27:30;;;;;;;43.00;29.87;;;;;;;-3.03;78.23;100965.11;1763914;81;21258;-79
2020/12/11 00:30:36;;;;;;;26.37;19.20;;;;;;;-3.11;78.29;100969.48;1797487;80;21271;-79
2020/12/11 00:33:42;;;;;;;56.55;43.98;;;;;;;-3.18;78.40;100973.41;1764521;81;21314;-79
2020/12/11 00:36:48;;;;;;;42.65;27.90;;;;;;;-3.23;78.46;100956.70;1797482;80;22613;-79
2020/12/11 00:39:54;;;;;;;54.73;41.23;;;;;;;-3.30;78.56;100959.73;1763349;81;21210;-79
2020/12/11 00:43:01;;;;;;;37.75;25.05;;;;;;;-3.37;78.78;100974.75;1797579;80;21750;-79
2020/12/11 00:46:06;;;;;;;83.70;61.65;;;;;;;-3.42;78.87;100967.41;1764261;81;21413;-78
2020/12/11 00:49:12;;;;;;;44.10;35.43;;;;;;;-3.46;78.97;100972.50;1797578;80;21239;-78
2020/12/11 00:52:17;;;;;;;41.63;29.52;;;;;;;-3.49;79.06;100969.95;1764189;81;21352;-78
2020/12/11 00:55:23;;;;;;;41.15;31.50;;;;;;;-3.53;79.10;100963.00;1797732;80;21322;-78
2020/12/11 00:58:29;;;;;;;51.92;37.33;;;;;;;-3.54;79.14;100962.61;1763502;81;21338;-79
2020/12/11 01:01:34;;;;;;;41.68;30.80;;;;;;;-3.54;79.09;100957.73;1797552;80;21767;-78
2020/12/11 01:04:39;;;;;;;56.60;40.40;;;;;;;-3.59;79.13;100947.25;1764448;81;21219;-78
2020/12/11 01:07:45;;;;;;;81.92;65.70;;;;;;;-3.63;79.16;100941.16;1797037;80;21287;-78
2020/12/11 01:10:51;;;;;;;48.68;34.45;;;;;;;-3.66;79.24;100935.12;1764444;81;21294;-78
2020/12/11 01:13:56;;;;;;;36.95;21.97;;;;;;;-3.71;79.32;100939.34;1797540;80;21101;-79
2020/12/11 01:17:02;;;;;;;23.70;13.28;;;;;;;-3.73;79.43;100932.31;1764447;81;21294;-78
2020/12/11 01:20:07;;;;;;;35.75;23.92;;;;;;;-3.76;79.38;100928.46;1797502;80;21795;-79
2020/12/11 01:23:15;;;;;;;44.40;32.88;;;;;;;-3.76;79.42;100935.15;1764028;81;21313;-78
2020/12/11 01:26:21;;;;;;;50.03;35.60;;;;;;;-3.83;79.47;100925.66;1797680;80;21283;-78
2020/12/11 01:29:26;;;;;;;60.85;38.02;;;;;;;-3.88;79.60;100926.73;1763047;81;21321;-78
2020/12/11 01:32:33;;;;;;;104.80;80.07;;;;;;;-3.88;79.66;100918.71;1797700;80;21263;-79
2020/12/11 01:35:38;;;;;;;64.97;48.35;;;;;;;-3.92;79.65;100926.46;1764506;81;21296;-79
2020/12/11 01:38:45;;;;;;;71.87;53.83;;;;;;;-3.93;79.68;100928.75;1796695;80;21251;-79
2020/12/11 01:41:51;;;;;;;16.77;9.43;;;;;;;-3.96;79.75;100919.52;1762816;81;21329;-79
2020/12/11 01:44:58;;;;;;;84.17;53.50;;;;;;;-4.00;79.75;100917.95;1797384;80;21181;-79
2020/12/11 01:48:03;;;;;;;43.10;32.55;;;;;;;-4.04;79.85;100905.66;1764272;81;21888;-79
2020/12/11 01:51:09;;;;;;;23.52;15.40;;;;;;;-4.06;79.96;100913.33;1797555;80;21267;-79
2020/12/11 01:54:13;;;;;;;55.85;43.05;;;;;;;-4.08;79.98;100905.39;1763525;81;21317;-79
2020/12/11 01:57:43;;;;;;;23.18;13.60;;;;;;;-4.11;80.05;100905.52;1796143;80;21275;-79
2020/12/11 02:00:51;;;;;;;40.30;30.20;;;;;;;-4.12;80.06;100898.45;1764581;81;21231;-79
2020/12/11 02:03:50;;;;;;;32.42;22.45;;;;;;;-4.15;80.09;100898.58;1797557;80;21830;-79
2020/12/11 02:06:56;;;;;;;56.98;40.05;;;;;;;-4.20;80.27;100884.55;1764393;81;21306;-79
2020/12/11 02:10:02;;;;;;;49.45;36.23;;;;;;;-4.23;80.38;100887.39;1796320;80;21208;-79
2020/12/11 02:13:14;;;;;;;40.08;25.15;;;;;;;-4.27;80.58;100889.31;1764457;81;21227;-79
2020/12/11 02:16:21;;;;;;;47.27;35.78;;;;;;;-4.27;80.63;100889.79;1797725;80;21290;-79
2020/12/11 02:19:33;;;;;;;69.47;48.15;;;;;;;-4.29;80.69;100884.96;1762543;81;21250;-78
2020/12/11 02:22:41;;;;;;;45.15;27.58;;;;;;;-4.34;80.82;100873.14;1795701;80;21168;-79
2020/12/11 02:25:49;;;;;;;27.32;16.37;;;;;;;-4.35;80.97;100882.57;1764746;81;21332;-80
2020/12/11 02:28:55;;;;;;;37.95;24.47;;;;;;;-4.37;81.08;100874.16;1797102;80;21861;-79
2020/12/11 02:32:01;;;;;;;50.33;27.75;;;;;;;-4.37;81.15;100874.64;1763146;81;21213;-79
2020/12/11 02:35:07;;;;;;;69.20;50.23;;;;;;;-4.38;81.24;100864.39;1798352;80;21255;-78
2020/12/11 02:38:14;;;;;;;66.57;47.13;;;;;;;-4.39;81.30;100861.80;1763370;81;21333;-79
2020/12/11 02:41:20;;;;;;;31.55;18.77;;;;;;;-4.41;81.35;100869.89;1795171;80;21189;-78
2020/12/11 02:44:26;;;;;;;48.13;32.70;;;;;;;-4.43;81.37;100862.40;1790292;80;21322;-79
2020/12/11 02:47:33;;;;;;;70.12;53.75;;;;;;;-4.45;81.46;100862.08;1775293;81;21833;-79
2020/12/11 02:50:39;;;;;;;44.30;30.92;;;;;;;-4.46;81.60;100854.55;1788377;80;21275;-79
2020/12/11 02:53:49;;;;;;;87.17;63.40;;;;;;;-4.47;81.65;100858.16;1774675;81;21380;-79
2020/12/11 02:56:53;;;;;;;39.70;23.10;;;;;;;-4.49;81.70;100853.33;1789827;80;21307;-79
2020/12/11 02:59:59;;;;;;;55.08;39.92;;;;;;;-4.51;81.75;100849.88;1774040;81;21305;-79
2020/12/11 03:03:07;;;;;;;32.83;19.52;;;;;;;-4.51;81.81;100851.21;1789829;80;21297;-79
2020/12/11 03:06:14;;;;;;;67.03;45.88;;;;;;;-4.52;81.84;100845.45;1774827;81;21199;-79
2020/12/11 03:09:21;;;;;;;44.95;28.02;;;;;;;-4.54;81.91;100847.80;1789286;80;21311;-79
2020/12/11 03:12:26;;;;;;;41.02;26.73;;;;;;;-4.56;81.97;100845.20;1775416;81;21855;-79
2020/12/11 03:15:32;;;;;;;37.60;22.85;;;;;;;-4.57;82.01;100842.58;1790248;80;21617;-79
2020/12/11 03:18:38;;;;;;;51.08;34.30;;;;;;;-4.56;82.06;100847.88;1773996;81;21344;-79
2020/12/11 03:21:44;;;;;;;39.45;24.50;;;;;;;-4.53;82.00;100839.71;1788921;80;21280;-79
2020/12/11 03:24:49;;;;;;;22.27;11.68;;;;;;;-4.54;81.96;100842.46;1773871;81;21234;-79
2020/12/11 03:27:56;;;;;;;22.45;13.32;;;;;;;-4.56;81.97;100849.65;1790475;80;21173;-79
2020/12/11 03:31:02;;;;;;;32.45;19.87;;;;;;;-4.56;81.95;100838.97;1773884;81;21357;-79
2020/12/11 03:34:09;;;;;;;61.95;39.78;;;;;;;-4.56;81.96;100829.63;1790262;80;21161;-79
2020/12/11 03:37:16;;;;;;;44.77;29.00;;;;;;;-4.57;81.97;100831.91;1774805;81;21352;-78
2020/12/11 03:40:22;;;;;;;74.05;51.33;;;;;;;-4.58;81.99;100832.38;1789432;80;21200;-78
2020/12/11 03:43:28;;;;;;;22.70;12.58;;;;;;;-4.59;82.02;100830.64;1760158;81;21218;-79
2020/12/11 03:46:33;;;;;;;33.00;21.00;;;;;;;-4.59;82.01;100831.12;1796158;80;21741;-79
2020/12/11 03:49:38;;;;;;;25.25;14.03;;;;;;;-4.59;82.10;100834.66;1797330;80;21373;-78
2020/12/11 03:52:43;;;;;;;55.50;38.10;;;;;;;-4.57;82.09;100838.11;1797398;80;21850;-79
2020/12/11 03:55:49;;;;;;;29.27;17.75;;;;;;;-4.60;82.15;100833.39;1797237;80;21306;-79
2020/12/11 03:58:55;;;;;;;68.72;49.73;;;;;;;-4.62;82.24;100836.11;1797550;80;21314;-79
2020/12/11 04:02:02;;;;;;;36.23;23.15;;;;;;;-4.63;82.27;100838.39;1797397;80;21181;-79
2020/12/11 04:05:13;;;;;;;67.47;47.35;;;;;;;-4.64;82.36;100854.02;1795907;80;21219;-77
2020/12/11 04:08:20;;;;;;;46.18;20.75;;;;;;;-4.62;82.43;100837.44;1797539;80;21270;-79
2020/12/11 04:11:25;;;;;;;38.13;26.25;;;;;;;-4.63;82.34;100837.91;1796122;80;21925;-78
2020/12/11 04:14:31;;;;;;;43.35;29.85;;;;;;;-4.64;82.41;100839.33;1797458;80;21259;-78
2020/12/11 04:17:36;;;;;;;54.55;34.92;;;;;;;-4.64;82.48;100837.99;1797622;80;21164;-78
2020/12/11 04:20:35;;;;;;;46.70;28.55;;;;;;;-4.66;82.52;100842.52;1795783;80;21165;-78
2020/12/11 04:23:41;;;;;;;46.98;31.55;;;;;;;-4.66;82.60;100841.18;1795978;80;21291;-78
2020/12/11 04:26:47;;;;;;;47.78;33.60;;;;;;;-4.67;82.69;100836.78;1796727;80;21362;-78
2020/12/11 04:29:54;;;;;;;46.25;30.40;;;;;;;-4.68;82.75;100827.05;1795985;79;21183;-79
2020/12/11 04:32:59;;;;;;;69.50;46.35;;;;;;;-4.66;82.81;100842.08;1764407;81;21726;-79
2020/12/11 04:36:06;;;;;;;56.95;42.05;;;;;;;-4.65;82.79;100833.59;1797303;80;21275;-79
2020/12/11 04:39:11;;;;;;;59.13;40.17;;;;;;;-4.64;82.85;100844.20;1763645;81;21298;-78
2020/12/11 04:42:16;;;;;;;59.13;45.20;;;;;;;-4.66;82.92;100832.73;1796728;80;21279;-78
2020/12/11 04:45:21;;;;;;;67.22;48.33;;;;;;;-4.64;82.95;100833.98;1747298;81;21825;-78
2020/12/11 04:48:27;;;;;;;42.83;29.55;;;;;;;-4.64;82.94;100834.86;1777098;81;21290;-78
2020/12/11 04:51:42;;;;;;;61.80;44.90;;;;;;;-4.63;82.94;100844.59;1775565;81;21904;-78
2020/12/11 04:54:50;;;;;;;53.45;36.17;;;;;;;-4.63;82.97;100837.05;1790171;79;21655;-78
2020/12/11 04:57:59;;;;;;;58.52;40.63;;;;;;;-4.67;83.03;100841.65;1785332;79;21285;-78
2020/12/11 05:01:13;;;;;;;37.35;25.88;;;;;;;-4.68;83.12;100837.25;1790122;79;21243;-78
2020/12/11 05:04:19;;;;;;;54.05;40.40;;;;;;;-4.66;83.16;100838.51;1808619;79;21793;-78
2020/12/11 05:07:24;;;;;;;62.85;46.10;;;;;;;-4.67;83.22;100821.62;1808473;79;21714;-78
2020/12/11 05:10:30;;;;;;;31.00;18.55;;;;;;;-4.68;83.32;100817.23;1784737;79;21812;-78
2020/12/11 05:13:36;;;;;;;80.28;56.50;;;;;;;-4.67;83.35;100812.76;1794583;79;21301;-78
2020/12/11 05:16:44;;;;;;;30.77;19.35;;;;;;;-4.68;83.39;100813.23;1783973;79;21211;-78
2020/12/11 05:19:58;;;;;;;31.80;17.55;;;;;;;-4.68;83.40;100809.22;1786287;79;21191;-79
2020/12/11 05:23:19;;;;;;;38.30;23.73;;;;;;;-4.67;83.45;100808.28;1785742;79;21207;-78
2020/12/11 05:26:28;;;;;;;26.37;16.30;;;;;;;-4.63;83.43;100807.22;1760360;80;21278;-78
2020/12/11 05:29:37;;;;;;;32.48;21.60;;;;;;;-4.58;83.32;100808.82;1782181;79;21290;-79
2020/12/11 05:33:02;;;;;;;42.70;28.67;;;;;;;-4.60;83.31;100803.56;1783935;79;21160;-78
2020/12/11 05:36:09;;;;;;;31.55;20.27;;;;;;;-4.62;83.39;100810.28;1760827;80;21334;-78
2020/12/11 05:39:15;;;;;;;26.12;12.35;;;;;;;-4.57;83.47;100807.88;1721745;82;21180;-78
2020/12/11 05:42:22;;;;;;;70.75;47.25;;;;;;;-4.56;83.44;100819.84;1746996;81;21349;-78
2020/12/11 05:45:29;;;;;;;43.30;30.27;;;;;;;-4.53;83.48;100821.02;1776280;79;21196;-80
2020/12/11 05:48:44;;;;;;;57.93;39.03;;;;;;;-4.50;83.38;100815.55;1772230;80;21260;-79
2020/12/11 05:51:51;;;;;;;27.90;17.42;;;;;;;-4.47;83.31;100803.41;1763013;81;21297;-79
2020/12/11 05:54:59;;;;;;;29.25;15.00;;;;;;;-4.43;83.23;100808.98;1777829;80;21278;-79
2020/12/11 05:58:06;;;;;;;25.08;15.83;;;;;;;-4.42;83.21;100809.88;1753951;81;21233;-79
2020/12/11 06:01:14;;;;;;;69.17;48.17;;;;;;;-4.40;83.20;100802.66;1774629;79;21292;-79
2020/12/11 06:04:22;;;;;;;55.55;39.65;;;;;;;-4.38;83.19;100814.13;1759323;79;21912;-79
2020/12/11 06:07:27;;;;;;;83.47;61.10;;;;;;;-4.38;83.22;100816.32;1769842;80;21165;-79
2020/12/11 06:10:41;;;;;;;46.95;29.57;;;;;;;-4.37;83.33;100810.54;1741059;81;21327;-77
2020/12/11 06:14:06;;;;;;;56.00;36.55;;;;;;;-4.32;83.37;100811.67;1727255;81;21277;-79
2020/12/11 06:17:17;;;;;;;74.32;55.83;;;;;;;-4.31;83.34;100803.58;1736664;81;21308;-79
2020/12/11 06:20:45;;;;;;;53.20;38.35;;;;;;;-4.29;83.35;100799.02;1733893;80;21170;-80
2020/12/11 06:23:50;;;;;;;80.80;58.23;;;;;;;-4.27;83.33;100792.29;1768565;80;21872;-80
2020/12/11 06:27:11;;;;;;;32.48;16.35;;;;;;;-4.25;83.36;100802.42;1753703;81;21768;-78
2020/12/11 06:30:38;;;;;;;52.43;33.73;;;;;;;-4.22;83.37;100798.28;1770149;79;21750;-79
2020/12/11 06:33:53;;;;;;;58.55;41.70;;;;;;;-4.20;83.38;100796.39;1753428;81;21363;-80
2020/12/11 06:37:07;;;;;;;39.50;25.85;;;;;;;-4.14;83.33;100792.99;1767248;79;21369;-79
2020/12/11 06:40:15;;;;;;;54.18;34.48;;;;;;;-4.11;83.31;100785.28;1754995;79;21343;-81
2020/12/11 06:43:55;;;;;;;34.30;23.15;;;;;;;-4.06;83.29;100783.26;1763018;79;21343;-80
2020/12/11 06:47:17;;;;;;;55.30;37.33;;;;;;;-4.02;83.15;100781.31;1751709;79;21316;-80
2020/12/11 06:50:23;;;;;;;21.37;14.00;;;;;;;-3.97;83.12;100775.28;1774341;78;21283;-81
2020/12/11 06:53:52;;;;;;;61.58;43.55;;;;;;;-3.95;83.09;100774.73;1776123;78;21299;-81
2020/12/11 06:57:02;;;;;;;47.35;33.95;;;;;;;-3.90;83.15;100766.91;1775203;78;21302;-81
2020/12/11 07:00:38;;;;;;;77.00;53.25;;;;;;;-3.84;83.07;100771.56;1772645;79;21845;-80
2020/12/11 07:03:47;;;;;;;36.55;26.40;;;;;;;-3.79;82.94;100765.52;1774659;78;21290;-82
2020/12/11 07:07:03;;;;;;;48.00;30.82;;;;;;;-3.71;82.83;100766.03;1771849;79;22108;-81
2020/12/11 07:10:14;;;;;;;102.10;75.20;;;;;;;-3.63;82.66;100767.36;1753778;79;21188;-79
2020/12/11 07:13:21;;;;;;;40.28;27.98;;;;;;;-3.58;82.45;100763.13;1782425;79;21922;-79
2020/12/11 07:16:31;;;;;;;44.93;30.80;;;;;;;-3.52;82.39;100752.63;1770859;78;21294;-79
2020/12/11 07:19:43;;;;;;;67.15;51.68;;;;;;;-3.48;82.19;100770.22;1773935;79;21366;-79
2020/12/11 07:22:49;;;;;;;57.15;39.30;;;;;;;-3.45;81.94;100742.00;1772373;78;21720;-80
2020/12/11 07:25:59;;;;;;;31.82;18.30;;;;;;;-3.39;81.96;100742.58;1769279;78;21212;-79
2020/12/11 07:29:20;;;;;;;62.10;40.80;;;;;;;-3.31;82.07;100746.66;1772928;78;21357;-81
2020/12/11 07:32:34;;;;;;;58.78;44.55;;;;;;;-3.24;81.66;100750.29;1770384;78;21294;-82
2020/12/11 07:35:55;;;;;;;45.33;33.60;;;;;;;-3.17;81.54;100728.95;1736067;79;22867;-82
2020/12/11 07:39:03;;;;;;;81.50;56.65;;;;;;;-3.09;81.36;100729.91;1768611;79;21233;-81
2020/12/11 07:42:09;;;;;;;40.55;27.60;;;;;;;-3.02;81.00;100733.11;1773279;78;21319;-80
2020/12/11 07:45:15;;;;;;;62.15;43.30;;;;;;;-2.95;80.80;100722.50;1772672;79;21195;-80
2020/12/11 07:48:20;;;;;;;28.85;19.40;;;;;;;-2.86;80.77;100716.66;1768731;79;21330;-80
2020/12/11 07:51:30;;;;;;;57.43;40.33;;;;;;;-2.76;80.65;100724.59;1756682;81;21328;-80
2020/12/11 07:54:49;;;;;;;38.15;24.07;;;;;;;-2.67;80.19;100707.17;1770349;80;21283;-81
2020/12/11 07:58:01;;;;;;;60.55;43.52;;;;;;;-2.59;79.93;100726.34;1754977;81;21308;-81
2020/12/11 08:01:10;;;;;;;51.20;34.48;;;;;;;-2.52;79.77;100710.83;1753662;79;21194;-81
2020/12/11 08:04:22;;;;;;;59.38;45.80;;;;;;;-2.39;79.58;100699.84;1770058;79;21573;-80
2020/12/11 08:07:36;;;;;;;27.58;18.82;;;;;;;-2.28;79.36;100708.61;1755627;79;21284;-80
2020/12/11 08:10:46;;;;;;;60.88;46.20;;;;;;;-2.17;78.86;100696.81;1766567;79;21256;-80
2020/12/11 08:13:58;;;;;;;57.15;39.40;;;;;;;-2.09;78.68;100686.05;1753454;79;21758;-80
2020/12/11 08:17:12;;;;;;;29.65;15.90;;;;;;;-1.97;78.45;100691.69;1763449;79;21311;-80
2020/12/11 08:20:20;;;;;;;51.08;36.50;;;;;;;-1.87;78.30;100677.66;1734580;81;21979;-80
2020/12/11 08:23:47;;;;;;;33.80;23.12;;;;;;;-1.75;77.95;100684.13;1752296;79;22211;-80
2020/12/11 08:26:54;;;;;;;35.55;24.67;;;;;;;-1.62;77.55;100685.63;1755777;79;21348;-80
2020/12/11 08:30:14;;;;;;;31.65;24.57;;;;;;;-1.50;77.01;100679.55;1772684;79;21322;-81
2020/12/11 08:33:23;;;;;;;48.58;36.53;;;;;;;-1.39;76.49;100672.20;1724256;79;22037;-82
2020/12/11 08:36:33;;;;;;;34.50;23.60;;;;;;;-1.32;75.93;100674.44;1736766;79;21202;-80
2020/12/11 08:39:40;;;;;;;32.00;19.02;;;;;;;-1.22;75.94;100668.48;1766707;79;21283;-79
2020/12/11 08:42:54;;;;;;;36.05;26.07;;;;;;;-1.09;75.44;100677.52;1761414;79;21321;-80
2020/12/11 08:46:30;;;;;;;29.10;17.82;;;;;;;-0.99;74.92;100655.00;1773098;79;21497;-80
2020/12/11 08:50:01;;;;;;;41.77;30.82;;;;;;;-0.92;74.57;100654.55;1738687;80;21409;-80
2020/12/11 08:53:04;;;;;;;26.68;17.77;;;;;;;-0.82;74.40;100655.69;1779863;78;21727;-80
2020/12/11 08:56:14;;;;;;;52.83;38.15;;;;;;;-0.68;74.65;100634.69;1789823;78;21306;-80
2020/12/11 08:59:20;;;;;;;21.52;13.72;;;;;;;-0.54;73.75;100649.45;1786141;78;21520;-80
2020/12/11 09:02:30;;;;;;;46.65;33.18;;;;;;;-0.46;73.00;100648.98;1779287;78;21315;-80
2020/12/11 09:05:40;;;;;;;22.58;12.93;;;;;;;-0.42;72.85;100641.11;1745538;80;21862;-81
2020/12/11 09:09:04;;;;;;;42.25;33.63;;;;;;;-0.35;72.85;100651.83;1787386;78;21750;-80
2020/12/11 09:12:21;;;;;;;21.48;12.65;;;;;;;-0.26;72.71;100632.42;1746156;80;21327;-80
2020/12/11 09:15:27;;;;;;;35.92;21.75;;;;;;;-0.14;72.23;100637.50;1776984;78;21302;-81
2020/12/11 09:18:33;;;;;;;36.98;18.23;;;;;;;-0.07;72.03;100621.33;1706862;80;21313;-79
2020/12/11 09:21:49;;;;;;;17.40;10.28;;;;;;;0.02;71.64;100616.31;1778041;78;21263;-80
2020/12/11 09:24:48;;;;;;;45.43;35.43;;;;;;;0.07;71.15;100607.45;1743827;80;21539;-79
2020/12/11 09:27:55;;;;;;;31.57;20.23;;;;;;;0.09;70.87;100615.78;1779251;78;21203;-80
2020/12/11 09:31:00;;;;;;;52.85;43.50;;;;;;;0.12;70.63;100608.87;1747768;80;21317;-79
2020/12/11 09:34:11;;;;;;;16.67;11.15;;;;;;;0.18;70.46;100601.72;1772090;78;21796;-80
2020/12/11 09:37:19;;;;;;;57.38;43.28;;;;;;;0.27;70.29;100606.11;1743372;80;21367;-80
2020/12/11 09:40:48;;;;;;;33.42;26.30;;;;;;;0.34;70.20;100592.16;1778873;78;21184;-80
2020/12/11 09:51:11;;;;;;;21.65;15.30;;;;;;;0.57;69.48;100581.16;1740912;79;21156;-81
2020/12/11 09:54:26;;;;;;;20.60;13.28;;;;;;;0.64;69.46;100571.67;1750225;81;21308;-81
2020/12/11 09:57:35;;;;;;;35.43;25.30;;;;;;;0.71;68.97;100581.06;1750693;81;21491;-82
2020/12/11 10:00:27;;;;;;;31.75;22.45;;;;;;;0.75;68.98;100565.08;1756029;79;21157;-82
2020/12/11 10:03:38;;;;;;;23.80;12.75;;;;;;;0.81;68.70;100569.16;1769186;79;21334;-81
2020/12/11 10:06:43;;;;;;;28.10;18.70;;;;;;;0.87;68.64;100557.95;1768654;79;21315;-80
2020/12/11 10:09:51;;;;;;;26.75;18.70;;;;;;;0.95;68.15;100565.02;1761079;80;21315;-81
2020/12/11 10:13:05;;;;;;;27.37;18.48;;;;;;;1.00;68.10;100555.26;1752648;79;21294;-81
2020/12/11 10:16:15;;;;;;;33.67;24.52;;;;;;;1.07;67.89;100554.32;1756286;79;21235;-82
2020/12/11 10:19:30;;;;;;;33.25;24.55;;;;;;;1.13;67.56;100553.42;1773111;78;21703;-81
2020/12/11 10:22:52;;;;;;;16.97;9.75;;;;;;;1.18;67.55;100547.70;1770252;79;21326;-80
2020/12/11 10:26:09;;;;;;;31.57;25.65;;;;;;;1.24;67.30;100548.11;1754293;79;21222;-80
2020/12/11 10:29:18;;;;;;;40.80;32.70;;;;;;;1.27;67.26;100530.38;1767979;79;21614;-80
2020/12/11 10:32:49;;;;;;;25.30;19.23;;;;;;;1.36;67.00;100534.70;1698436;81;21749;-80
2020/12/11 10:36:02;;;;;;;30.48;21.00;;;;;;;1.45;66.61;100520.55;1750740;79;21225;-81
2020/12/11 10:49:54;;;;;;;24.67;16.20;;;;;;;1.68;65.79;100513.45;1903729;73;22566;-81
2020/12/11 10:53:10;;;;;;;48.15;38.85;;;;;;;1.65;65.75;100523.14;1877006;74;21762;-81
2020/12/11 10:56:25;;;;;;;33.45;23.57;;;;;;;1.72;65.45;100513.11;1873956;74;21200;-81
2020/12/11 10:59:31;;;;;;;49.80;37.35;;;;;;;1.76;65.08;100517.30;1817121;77;21278;-79
2020/12/11 11:02:38;;;;;;;21.17;16.42;;;;;;;1.80;64.87;100511.20;1832244;76;21171;-79
2020/12/11 11:05:51;;;;;;;16.48;10.15;;;;;;;1.86;64.57;100508.03;1832196;76;21239;-80
2020/12/11 11:12:23;;;;;;;20.70;16.65;;;;;;;1.99;63.82;100499.88;1809841;77;21155;-79
2020/12/11 11:18:50;;;;;;;18.27;15.25;;;;;;;2.07;63.65;100505.55;1789706;76;21280;-80
2020/12/11 11:28:40;;;;;;;35.52;24.18;;;;;;;2.23;63.10;100493.94;1828429;76;21931;-80
2020/12/11 11:31:50;;;;;;;18.55;12.30;;;;;;;2.28;63.02;100484.14;1833747;76;22630;-80
2020/12/11 11:34:57;;;;;;;;;;;;;;;2.32;62.60;100499.61;1812485;76;21147;-80
2020/12/11 11:38:08;;;;;;;30.48;23.92;;;;;;;2.35;62.01;100482.66;1805494;76;20245;-79
2020/12/11 11:41:12;;;;;;;21.52;15.00;;;;;;;2.35;62.13;100488.56;1782700;79;21313;-79
2020/12/11 11:47:30;;;;;;;21.82;16.45;;;;;;;2.37;62.17;100489.31;1813826;77;21276;-80
2020/12/11 11:50:46;;;;;;;25.72;20.75;;;;;;;2.39;62.36;100485.50;1791872;78;21259;-80
2020/12/11 11:53:49;;;;;;;25.40;21.77;;;;;;;2.38;62.50;100484.28;1796035;78;21203;-80
2020/12/11 11:56:56;;;;;;;34.73;26.80;;;;;;;2.40;62.52;100478.26;1796596;78;21215;-80
2020/12/11 12:00:07;;;;;;;24.95;19.67;;;;;;;2.40;62.17;100487.70;1790921;78;21691;-79
2020/12/11 12:03:13;;;;;;;35.58;28.10;;;;;;;2.37;62.12;100494.22;1790903;78;21321;-78
2020/12/11 12:06:20;;;;;;;28.52;23.22;;;;;;;2.39;62.40;100494.95;1793213;78;21465;-79
2020/12/11 12:09:25;;;;;;;26.68;10.43;;;;;;;2.39;62.22;100499.49;1797500;78;21227;-79
2020/12/11 12:12:37;;;;;;;23.65;16.95;;;;;;;2.37;62.11;100482.56;1800125;78;21986;-79
2020/12/11 12:15:57;;;;;;;21.77;12.95;;;;;;;2.36;62.05;100496.55;1802392;77;21219;-80
2020/12/11 12:19:13;;;;;;;26.30;21.00;;;;;;;2.36;62.08;100495.70;1779269;78;21286;-79
2020/12/11 12:28:56;;;;;;;26.00;16.07;;;;;;;2.32;62.59;100508.57;1800889;78;21996;-79
2020/12/11 12:32:14;;;;;;;22.77;16.95;;;;;;;2.32;62.79;100515.81;1798948;78;21219;-80
2020/12/11 12:35:36;;;;;;;27.45;17.55;;;;;;;2.32;62.77;100512.62;1806101;78;22202;-79
2020/12/11 12:45:01;;;;;;;32.37;26.57;;;;;;;2.25;62.97;100525.70;1725810;78;21294;-79
2020/12/11 12:48:10;;;;;;;26.37;15.32;;;;;;;2.24;63.04;100529.39;1801869;78;22019;-79
2020/12/11 12:51:16;;;;;;;28.70;16.25;;;;;;;2.23;63.04;100524.13;1799626;78;21458;-80
2020/12/11 12:54:21;;;;;;;28.38;22.40;;;;;;;2.20;63.04;100517.11;1801321;78;21309;-80
2020/12/11 13:01:02;;;;;;;23.98;14.00;;;;;;;2.18;63.12;100524.48;1807393;78;21353;-80
2020/12/11 13:07:06;;;;;;;26.02;19.37;;;;;;;2.11;63.38;100511.06;1802127;78;21302;-79
2020/12/11 13:10:12;;;;;;;36.98;23.25;;;;;;;2.08;63.38;100518.06;1804758;78;21244;-79
2020/12/11 13:13:17;;;;;;;48.35;42.30;;;;;;;2.04;63.40;100517.92;1786044;78;21349;-79
2020/12/11 13:16:24;;;;;;;32.65;26.23;;;;;;;2.00;63.47;100524.03;1796164;78;21279;-80
2020/12/11 13:19:31;;;;;;;37.88;31.95;;;;;;;1.98;63.61;100521.09;1791409;78;21551;-80
2020/12/11 13:29:28;;;;;;;24.00;19.10;;;;;;;1.81;63.89;100518.30;1799229;78;21240;-79
2020/12/11 13:32:37;;;;;;;20.57;16.65;;;;;;;1.74;64.03;100527.36;1793860;78;21367;-79
2020/12/11 13:35:44;;;;;;;33.90;26.65;;;;;;;1.69;64.26;100523.26;1809360;78;21350;-79
2020/12/11 13:38:49;;;;;;;34.45;27.93;;;;;;;1.61;64.55;100522.50;1793097;78;21295;-79
2020/12/11 13:41:53;;;;;;;32.30;26.60;;;;;;;1.51;64.90;100520.98;1791219;78;21207;-79
2020/12/11 13:45:00;;;;;;;23.52;17.20;;;;;;;1.42;65.28;100516.75;1787771;78;21333;-79
2020/12/11 13:48:07;;;;;;;54.13;43.00;;;;;;;1.36;65.71;100529.30;1797799;78;21397;-80
2020/12/11 13:51:12;;;;;;;28.27;20.10;;;;;;;1.33;65.93;100535.80;1794947;78;22424;-80
2020/12/11 13:54:21;;;;;;;28.17;14.63;;;;;;;1.25;66.16;100537.69;1796634;78;21298;-80
2020/12/11 13:57:27;;;;;;;31.07;26.40;;;;;;;1.18;66.49;100537.78;1792261;78;21192;-81
2020/12/11 14:00:32;;;;;;;37.48;30.77;;;;;;;1.10;66.88;100533.42;1791938;78;21703;-80
2020/12/11 14:03:37;;;;;;;22.73;18.65;;;;;;;1.05;67.24;100530.69;1792651;78;21856;-80
2020/12/11 14:06:44;;;;;;;34.03;22.75;;;;;;;1.01;67.43;100532.73;1789227;78;21334;-80
2020/12/11 14:09:50;;;;;;;20.77;12.40;;;;;;;0.94;67.74;100534.12;1795692;78;21361;-80
2020/12/11 14:12:56;;;;;;;56.53;49.98;;;;;;;0.89;67.98;100534.94;1803264;78;21297;-80
2020/12/11 14:16:02;;;;;;;22.82;15.10;;;;;;;0.83;68.43;100536.73;1796552;78;21833;-79
2020/12/11 14:22:31;;;;;;;20.20;13.20;;;;;;;0.78;68.91;100533.50;1769175;80;21470;-80
2020/12/11 14:25:29;;;;;;;33.45;23.22;;;;;;;0.78;69.07;100541.58;1778684;80;21291;-80
2020/12/11 14:28:35;;;;;;;29.60;21.70;;;;;;;0.76;69.23;100537.17;1773825;80;21318;-81
2020/12/11 14:31:41;;;;;;;28.30;21.02;;;;;;;0.72;69.45;100529.42;1805694;78;21155;-80
2020/12/11 14:34:47;;;;;;;24.07;12.13;;;;;;;0.67;69.61;100521.66;1801796;78;21330;-79
2020/12/11 14:37:52;;;;;;;39.42;28.67;;;;;;;0.62;70.00;100532.39;1790864;78;21278;-79
2020/12/11 14:41:01;;;;;;;;;;;;;;;0.58;70.21;100533.56;1781996;78;22041;-79
2020/12/11 14:44:06;;;;;;;15.50;8.43;;;;;;;0.54;70.46;100525.32;1791162;78;20281;-79
2020/12/11 14:47:13;;;;;;;13.98;9.10;;;;;;;0.48;70.61;100534.20;1770588;80;21195;-79
2020/12/11 14:50:19;;;;;;;22.90;16.37;;;;;;;0.44;70.93;100535.87;1762661;81;21249;-79
2020/12/11 14:53:25;;;;;;;35.03;23.90;;;;;;;0.39;71.11;100534.84;1750889;81;21390;-80
2020/12/11 14:56:30;;;;;;;45.03;31.68;;;;;;;0.36;71.35;100536.38;1785100;80;21603;-80
2020/12/11 14:59:36;;;;;;;36.05;26.97;;;;;;;0.32;71.62;100542.08;1786197;80;21362;-80
2020/12/11 15:02:42;;;;;;;49.30;34.48;;;;;;;0.31;72.08;100552.47;1797707;79;21220;-79
2020/12/11 15:05:48;;;;;;;32.13;25.75;;;;;;;0.30;72.23;100546.72;1797896;79;21719;-80
2020/12/11 15:08:54;;;;;;;29.67;22.98;;;;;;;0.28;72.43;100549.98;1767024;81;21317;-80
2020/12/11 15:12:00;;;;;;;27.87;21.02;;;;;;;0.24;72.62;100545.31;1794487;79;22315;-78
2020/12/11 15:15:06;;;;;;;14.47;8.65;;;;;;;0.20;72.77;100538.42;1798664;79;21317;-79
2020/12/11 15:18:11;;;;;;;10.45;7.00;;;;;;;0.19;72.91;100538.91;1798721;79;21298;-80
2020/12/11 15:21:16;;;;;;;16.75;6.33;;;;;;;0.20;72.91;100538.42;1798448;79;21216;-80
2020/12/11 15:24:23;;;;;;;10.60;5.40;;;;;;;0.19;72.92;100539.39;1799659;79;21981;-80
2020/12/11 15:27:29;;;;;;;14.95;6.87;;;;;;;0.15;72.94;100536.05;1799434;79;21719;-80